sensor_id;sensor_type;location;lat;lon;timestamp;pressure;altitude;pressure_sealevel;temperature;humidity
78210;BME280;67485;48.816;9.930;2024-02-23T00:02:04;94931.69;;;5.10;100.00
78210;BME280;67485;48.816;9.930;2024-02-23T00:04:32;94932.09;;;4.97;100.00
78210;BME280;67485;48.816;9.930;2024-02-23T00:06:58;94944.75;;;5.07;100.00
78210;BME280;67485;48.816;9.930;2024-02-23T00:09:24;94950.53;;;5.15;100.00
78210;BME280;67485;48.816;9.930;2024-02-23T00:11:49;94935.25;;;5.06;100.00
78210;BME280;67485;48.816;9.930;2024-02-23T00:14:16;94946.06;;;4.93;100.00
78210;BME280;67485;48.816;9.930;2024-02-23T00:16:43;94953.09;;;4.91;100.00
78210;BME280;67485;48.816;9.930;2024-02-23T00:19:10;94951.25;;;4.93;100.00
78210;BME280;67485;48.816;9.930;2024-02-23T00:21:39;94939.03;;;4.97;100.00
78210;BME280;67485;48.816;9.930;2024-02-23T00:24:08;94945.97;;;4.96;100.00
78210;BME280;67485;48.816;9.930;2024-02-23T00:26:33;94956.50;;;4.92;100.00
78210;BME280;67485;48.816;9.930;2024-02-23T00:28:59;94964.41;;;4.89;100.00
78210;BME280;67485;48.816;9.930;2024-02-23T00:31:25;94971.47;;;4.85;100.00
78210;BME280;67485;48.816;9.930;2024-02-23T00:33:50;94963.88;;;4.79;100.00
78210;BME280;67485;48.816;9.930;2024-02-23T00:36:16;94965.72;;;4.75;100.00
78210;BME280;67485;48.816;9.930;2024-02-23T00:38:42;94964.09;;;4.73;100.00
78210;BME280;67485;48.816;9.930;2024-02-23T00:41:08;94965.88;;;4.70;100.00
78210;BME280;67485;48.816;9.930;2024-02-23T00:43:40;94973.63;;;4.72;100.00
78210;BME280;67485;48.816;9.930;2024-02-23T00:46:07;94983.06;;;4.75;100.00
78210;BME280;67485;48.816;9.930;2024-02-23T00:48:33;94978.81;;;4.72;100.00
78210;BME280;67485;48.816;9.930;2024-02-23T00:50:59;94988.25;;;4.75;100.00
78210;BME280;67485;48.816;9.930;2024-02-23T00:53:24;94990.84;;;4.75;100.00
78210;BME280;67485;48.816;9.930;2024-02-23T00:55:50;94983.81;;;4.78;100.00
78210;BME280;67485;48.816;9.930;2024-02-23T00:58:16;94970.91;;;4.75;100.00
78210;BME280;67485;48.816;9.930;2024-02-23T01:00:41;94977.00;;;4.74;100.00
78210;BME280;67485;48.816;9.930;2024-02-23T01:03:07;94971.75;;;4.76;100.00
78210;BME280;67485;48.816;9.930;2024-02-23T01:05:33;94970.84;;;4.77;100.00
78210;BME280;67485;48.816;9.930;2024-02-23T01:07:58;94981.09;;;4.81;100.00
78210;BME280;67485;48.816;9.930;2024-02-23T01:10:24;94990.63;;;4.81;100.00
78210;BME280;67485;48.816;9.930;2024-02-23T01:12:50;94988.03;;;4.81;100.00
78210;BME280;67485;48.816;9.930;2024-02-23T01:15:15;94974.31;;;4.77;99.40
78210;BME280;67485;48.816;9.930;2024-02-23T01:17:41;94974.34;;;4.76;99.19
78210;BME280;67485;48.816;9.930;2024-02-23T01:20:07;94983.94;;;4.74;99.16
78210;BME280;67485;48.816;9.930;2024-02-23T01:22:33;94977.00;;;4.74;99.13
78210;BME280;67485;48.816;9.930;2024-02-23T01:24:59;94984.72;;;4.76;99.01
78210;BME280;67485;48.816;9.930;2024-02-23T01:27:24;94985.66;;;4.75;99.14
78210;BME280;67485;48.816;9.930;2024-02-23T01:29:50;94987.44;;;4.73;99.11
78210;BME280;67485;48.816;9.930;2024-02-23T01:32:16;94984.97;;;4.69;99.34
78210;BME280;67485;48.816;9.930;2024-02-23T01:34:41;94989.28;;;4.69;99.02
78210;BME280;67485;48.816;9.930;2024-02-23T01:37:07;94977.13;;;4.71;99.48
78210;BME280;67485;48.816;9.930;2024-02-23T01:39:33;94971.13;;;4.69;99.95
78210;BME280;67485;48.816;9.930;2024-02-23T01:41:59;94969.47;;;4.66;99.20
78210;BME280;67485;48.816;9.930;2024-02-23T01:44:24;94973.66;;;4.70;99.71
78210;BME280;67485;48.816;9.930;2024-02-23T01:46:50;94963.44;;;4.66;99.59
78210;BME280;67485;48.816;9.930;2024-02-23T01:49:16;94972.06;;;4.66;99.25
78210;BME280;67485;48.816;9.930;2024-02-23T01:51:42;94974.88;;;4.60;99.49
78210;BME280;67485;48.816;9.930;2024-02-23T01:54:08;94987.84;;;4.60;99.51
78210;BME280;67485;48.816;9.930;2024-02-23T01:56:35;94994.78;;;4.60;99.79
78210;BME280;67485;48.816;9.930;2024-02-23T01:59:02;94990.53;;;4.57;99.69
78210;BME280;67485;48.816;9.930;2024-02-23T02:01:30;94998.31;;;4.57;99.19
78210;BME280;67485;48.816;9.930;2024-02-23T02:03:56;95003.59;;;4.54;98.41
78210;BME280;67485;48.816;9.930;2024-02-23T02:06:23;95003.53;;;4.55;98.92
78210;BME280;67485;48.816;9.930;2024-02-23T02:08:49;95008.00;;;4.52;97.99
78210;BME280;67485;48.816;9.930;2024-02-23T02:11:15;94999.41;;;4.50;97.76
78210;BME280;67485;48.816;9.930;2024-02-23T02:13:41;94996.94;;;4.45;97.92
78210;BME280;67485;48.816;9.930;2024-02-23T02:16:07;95003.09;;;4.43;98.10
78210;BME280;67485;48.816;9.930;2024-02-23T02:18:32;95005.78;;;4.40;96.37
78210;BME280;67485;48.816;9.930;2024-02-23T02:20:58;95003.28;;;4.36;96.51
78210;BME280;67485;48.816;9.930;2024-02-23T02:23:25;94999.88;;;4.34;96.72
78210;BME280;67485;48.816;9.930;2024-02-23T02:25:55;95000.03;;;4.30;96.18
78210;BME280;67485;48.816;9.930;2024-02-23T02:28:22;94997.44;;;4.30;95.87
78210;BME280;67485;48.816;9.930;2024-02-23T02:30:49;95000.09;;;4.28;95.81
78210;BME280;67485;48.816;9.930;2024-02-23T02:33:14;95001.00;;;4.27;95.22
78210;BME280;67485;48.816;9.930;2024-02-23T02:35:40;95000.09;;;4.28;95.85
78210;BME280;67485;48.816;9.930;2024-02-23T02:38:10;94998.41;;;4.27;95.51
78210;BME280;67485;48.816;9.930;2024-02-23T02:40:36;94987.13;;;4.28;95.01
78210;BME280;67485;48.816;9.930;2024-02-23T02:43:01;94988.03;;;4.27;94.81
78210;BME280;67485;48.816;9.930;2024-02-23T02:45:27;94988.09;;;4.24;95.40
78210;BME280;67485;48.816;9.930;2024-02-23T02:47:53;94984.53;;;4.28;95.16
78210;BME280;67485;48.816;9.930;2024-02-23T02:50:18;94980.28;;;4.26;95.00
78210;BME280;67485;48.816;9.930;2024-02-23T02:52:44;94990.63;;;4.26;95.73
78210;BME280;67485;48.816;9.930;2024-02-23T02:55:10;94983.81;;;4.23;95.35
78210;BME280;67485;48.816;9.930;2024-02-23T02:57:35;94991.50;;;4.26;94.49
78210;BME280;67485;48.816;9.930;2024-02-23T03:00:02;95005.34;;;4.25;94.77
78210;BME280;67485;48.816;9.930;2024-02-23T03:02:31;95001.81;;;4.28;93.88
78210;BME280;67485;48.816;9.930;2024-02-23T03:04:57;94996.75;;;4.25;94.15
78210;BME280;67485;48.816;9.930;2024-02-23T03:07:22;95005.34;;;4.25;93.50
78210;BME280;67485;48.816;9.930;2024-02-23T03:09:48;94996.78;;;4.23;93.41
78210;BME280;67485;48.816;9.930;2024-02-23T03:12:19;95006.31;;;4.22;94.01
78210;BME280;67485;48.816;9.930;2024-02-23T03:14:44;95001.97;;;4.23;92.43
78210;BME280;67485;48.816;9.930;2024-02-23T03:17:10;95010.59;;;4.24;92.65
78210;BME280;67485;48.816;9.930;2024-02-23T03:19:36;95010.66;;;4.22;93.47
78210;BME280;67485;48.816;9.930;2024-02-23T03:22:02;95010.66;;;4.22;92.77
78210;BME280;67485;48.816;9.930;2024-02-23T03:24:28;95006.34;;;4.21;92.56
78210;BME280;67485;48.816;9.930;2024-02-23T03:26:53;95010.66;;;4.22;92.57
78210;BME280;67485;48.816;9.930;2024-02-23T03:29:19;95007.16;;;4.23;92.74
78210;BME280;67485;48.816;9.930;2024-02-23T03:31:45;94999.41;;;4.21;92.58
78210;BME280;67485;48.816;9.930;2024-02-23T03:34:11;94991.59;;;4.23;92.42
78210;BME280;67485;48.816;9.930;2024-02-23T03:36:38;95001.13;;;4.22;92.17
78210;BME280;67485;48.816;9.930;2024-02-23T03:39:04;95007.25;;;4.20;91.09
78210;BME280;67485;48.816;9.930;2024-02-23T03:41:29;95003.00;;;4.17;91.43
78210;BME280;67485;48.816;9.930;2024-02-23T03:43:55;94993.59;;;4.15;91.99
78210;BME280;67485;48.816;9.930;2024-02-23T03:46:21;95012.50;;;4.17;92.42
78210;BME280;67485;48.816;9.930;2024-02-23T03:48:47;95021.22;;;4.16;93.08
78210;BME280;67485;48.816;9.930;2024-02-23T03:51:13;95028.19;;;4.14;92.97
78210;BME280;67485;48.816;9.930;2024-02-23T03:53:38;95042.03;;;4.13;92.82
78210;BME280;67485;48.816;9.930;2024-02-23T03:56:04;95043.84;;;4.11;93.02
78210;BME280;67485;48.816;9.930;2024-02-23T03:58:30;95043.03;;;4.09;93.17
78210;BME280;67485;48.816;9.930;2024-02-23T04:00:56;95052.56;;;4.06;93.77
78210;BME280;67485;48.816;9.930;2024-02-23T04:03:21;95058.75;;;4.02;94.25
78210;BME280;67485;48.816;9.930;2024-02-23T04:05:47;95065.69;;;4.02;94.92
78210;BME280;67485;48.816;9.930;2024-02-23T04:08:12;95059.69;;;4.00;95.96
78210;BME280;67485;48.816;9.930;2024-02-23T04:10:38;95066.69;;;3.96;95.80
78210;BME280;67485;48.816;9.930;2024-02-23T04:13:04;95070.09;;;3.98;95.55
78210;BME280;67485;48.816;9.930;2024-02-23T04:15:29;95053.63;;;3.99;95.55
78210;BME280;67485;48.816;9.930;2024-02-23T04:17:55;95059.75;;;3.98;95.21
78210;BME280;67485;48.816;9.930;2024-02-23T04:20:21;95074.38;;;3.99;95.93
78210;BME280;67485;48.816;9.930;2024-02-23T04:22:47;95082.16;;;3.99;95.48
78210;BME280;67485;48.816;9.930;2024-02-23T04:25:12;95089.84;;;4.02;95.94
78210;BME280;67485;48.816;9.930;2024-02-23T04:27:38;95083.06;;;3.98;95.72
78210;BME280;67485;48.816;9.930;2024-02-23T04:30:04;95071.88;;;3.96;96.58
78210;BME280;67485;48.816;9.930;2024-02-23T04:32:31;95083.97;;;3.97;95.96
78210;BME280;67485;48.816;9.930;2024-02-23T04:34:56;95082.13;;;4.01;95.95
78210;BME280;67485;48.816;9.930;2024-02-23T04:37:22;95072.69;;;3.98;95.55
78210;BME280;67485;48.816;9.930;2024-02-23T04:39:48;95071.72;;;4.02;95.71
78210;BME280;67485;48.816;9.930;2024-02-23T04:42:13;95074.94;;;4.11;95.24
78210;BME280;67485;48.816;9.930;2024-02-23T04:44:41;95076.44;;;4.18;95.09
78210;BME280;67485;48.816;9.930;2024-02-23T04:47:07;95072.06;;;4.20;93.92
78210;BME280;67485;48.816;9.930;2024-02-23T04:49:34;95073.13;;;4.13;93.17
78210;BME280;67485;48.816;9.930;2024-02-23T04:52:00;95071.66;;;4.04;92.92
78210;BME280;67485;48.816;9.930;2024-02-23T04:54:26;95083.84;;;4.00;93.34
78210;BME280;67485;48.816;9.930;2024-02-23T04:56:51;95083.84;;;4.00;92.81
78210;BME280;67485;48.816;9.930;2024-02-23T04:59:17;95065.00;;;3.95;92.60
78210;BME280;67485;48.816;9.930;2024-02-23T05:01:43;95052.94;;;3.94;93.04
78210;BME280;67485;48.816;9.930;2024-02-23T05:04:09;95047.84;;;3.91;92.25
78210;BME280;67485;48.816;9.930;2024-02-23T05:06:34;95056.50;;;3.90;92.20
78210;BME280;67485;48.816;9.930;2024-02-23T05:09:01;95066.06;;;3.88;92.59
78210;BME280;67485;48.816;9.930;2024-02-23T05:11:27;95054.97;;;3.83;92.26
78210;BME280;67485;48.816;9.930;2024-02-23T05:13:53;95043.84;;;3.81;92.78
78210;BME280;67485;48.816;9.930;2024-02-23T05:16:18;95048.25;;;3.77;92.78
78210;BME280;67485;48.816;9.930;2024-02-23T05:18:44;95053.38;;;3.79;93.67
78210;BME280;67485;48.816;9.930;2024-02-23T05:21:14;95053.22;;;3.85;93.25
78210;BME280;67485;48.816;9.930;2024-02-23T05:23:40;95054.03;;;3.85;93.26
78210;BME280;67485;48.816;9.930;2024-02-23T05:26:05;95051.50;;;3.84;93.43
78210;BME280;67485;48.816;9.930;2024-02-23T05:28:31;95067.03;;;3.84;93.03
78210;BME280;67485;48.816;9.930;2024-02-23T05:30:56;95072.34;;;3.81;92.72
78210;BME280;67485;48.816;9.930;2024-02-23T05:33:23;95071.63;;;3.74;92.37
78210;BME280;67485;48.816;9.930;2024-02-23T05:35:49;95058.66;;;3.76;93.03
78210;BME280;67485;48.816;9.930;2024-02-23T05:38:15;95055.31;;;3.72;93.17
78210;BME280;67485;48.816;9.930;2024-02-23T05:40:41;95060.44;;;3.73;92.45
78210;BME280;67485;48.816;9.930;2024-02-23T05:43:07;95075.25;;;3.68;92.76
78210;BME280;67485;48.816;9.930;2024-02-23T05:45:33;95062.38;;;3.65;92.54
78210;BME280;67485;48.816;9.930;2024-02-23T05:47:58;95065.13;;;3.61;91.67
78210;BME280;67485;48.816;9.930;2024-02-23T05:50:24;95090.16;;;3.60;92.36
78210;BME280;67485;48.816;9.930;2024-02-23T05:52:50;95085.84;;;3.59;91.99
78210;BME280;67485;48.816;9.930;2024-02-23T05:55:15;95079.00;;;3.58;91.14
78210;BME280;67485;48.816;9.930;2024-02-23T05:57:41;95086.88;;;3.53;90.14
78210;BME280;67485;48.816;9.930;2024-02-23T06:00:07;95099.06;;;3.50;90.17
78210;BME280;67485;48.816;9.930;2024-02-23T06:02:39;95110.25;;;3.50;90.07
78210;BME280;67485;48.816;9.930;2024-02-23T06:05:05;95112.94;;;3.47;88.88
78210;BME280;67485;48.816;9.930;2024-02-23T06:07:33;95104.31;;;3.47;88.49
78210;BME280;67485;48.816;9.930;2024-02-23T06:10:00;95097.41;;;3.47;88.42
78210;BME280;67485;48.816;9.930;2024-02-23T06:12:26;95092.28;;;3.46;88.00
78210;BME280;67485;48.816;9.930;2024-02-23T06:14:52;95104.31;;;3.47;87.73
78210;BME280;67485;48.816;9.930;2024-02-23T06:17:18;95102.63;;;3.46;86.87
78210;BME280;67485;48.816;9.930;2024-02-23T06:19:44;95099.13;;;3.47;87.77
78210;BME280;67485;48.816;9.930;2024-02-23T06:22:09;95097.47;;;3.46;87.73
78210;BME280;67485;48.816;9.930;2024-02-23T06:24:38;95096.59;;;3.45;88.31
78210;BME280;67485;48.816;9.930;2024-02-23T06:27:04;95099.28;;;3.40;87.92
78210;BME280;67485;48.816;9.930;2024-02-23T06:29:30;95100.09;;;3.43;87.78
78210;BME280;67485;48.816;9.930;2024-02-23T06:31:55;95097.47;;;3.46;88.16
78210;BME280;67485;48.816;9.930;2024-02-23T06:34:21;95099.13;;;3.47;88.48
78210;BME280;67485;48.816;9.930;2024-02-23T06:36:47;95093.94;;;3.47;87.83
78210;BME280;67485;48.816;9.930;2024-02-23T06:39:13;95104.31;;;3.47;87.88
78210;BME280;67485;48.816;9.930;2024-02-23T06:41:39;95101.72;;;3.47;87.72
78210;BME280;67485;48.816;9.930;2024-02-23T06:44:05;95089.53;;;3.50;88.45
78210;BME280;67485;48.816;9.930;2024-02-23T06:46:30;95090.47;;;3.48;88.16
78210;BME280;67485;48.816;9.930;2024-02-23T06:48:56;95090.41;;;3.51;88.44
78210;BME280;67485;48.816;9.930;2024-02-23T06:51:22;95092.91;;;3.54;88.49
78210;BME280;67485;48.816;9.930;2024-02-23T06:53:47;95102.31;;;3.58;88.85
78210;BME280;67485;48.816;9.930;2024-02-23T06:56:13;95104.09;;;3.56;89.28
78210;BME280;67485;48.816;9.930;2024-02-23T06:58:39;95091.03;;;3.59;89.46
78210;BME280;67485;48.816;9.930;2024-02-23T07:01:05;95090.09;;;3.63;89.78
78210;BME280;67485;48.816;9.930;2024-02-23T07:03:33;95094.50;;;3.60;89.73
78210;BME280;67485;48.816;9.930;2024-02-23T07:06:00;95088.38;;;3.62;90.09
78210;BME280;67485;48.816;9.930;2024-02-23T07:08:26;95095.16;;;3.66;89.57
78210;BME280;67485;48.816;9.930;2024-02-23T07:10:52;95103.75;;;3.68;89.46
78210;BME280;67485;48.816;9.930;2024-02-23T07:13:17;95106.19;;;3.75;89.61
78210;BME280;67485;48.816;9.930;2024-02-23T07:15:44;95122.56;;;3.75;89.41
78210;BME280;67485;48.816;9.930;2024-02-23T07:18:10;95139.84;;;3.75;90.14
78210;BME280;67485;48.816;9.930;2024-02-23T07:20:36;95138.19;;;3.72;90.86
78210;BME280;67485;48.816;9.930;2024-02-23T07:23:02;95140.78;;;3.72;90.70
78210;BME280;67485;48.816;9.930;2024-02-23T07:25:28;95145.09;;;3.71;90.01
78210;BME280;67485;48.816;9.930;2024-02-23T07:27:53;95138.16;;;3.73;89.06
78210;BME280;67485;48.816;9.930;2024-02-23T07:30:19;95148.41;;;3.77;89.03
78210;BME280;67485;48.816;9.930;2024-02-23T07:32:45;95134.47;;;3.82;88.92
78210;BME280;67485;48.816;9.930;2024-02-23T07:35:12;95129.25;;;3.84;88.07
78210;BME280;67485;48.816;9.930;2024-02-23T07:37:37;95141.22;;;3.88;88.92
78210;BME280;67485;48.816;9.930;2024-02-23T07:40:03;95152.44;;;3.88;88.06
78210;BME280;67485;48.816;9.930;2024-02-23T07:42:30;95160.09;;;3.93;88.04
78210;BME280;67485;48.816;9.930;2024-02-23T07:44:55;95156.69;;;3.91;87.97
78210;BME280;67485;48.816;9.930;2024-02-23T07:47:21;95150.53;;;3.95;87.43
78210;BME280;67485;48.816;9.930;2024-02-23T07:49:47;95141.75;;;4.01;87.28
78210;BME280;67485;48.816;9.930;2024-02-23T07:52:13;95145.88;;;4.06;88.02
78210;BME280;67485;48.816;9.930;2024-02-23T07:54:39;95144.28;;;4.02;86.73
78210;BME280;67485;48.816;9.930;2024-02-23T07:57:05;95124.38;;;4.04;87.15
78210;BME280;67485;48.816;9.930;2024-02-23T07:59:30;95133.66;;;4.12;87.09
78210;BME280;67485;48.816;9.930;2024-02-23T08:01:57;95133.56;;;4.15;87.12
78210;BME280;67485;48.816;9.930;2024-02-23T08:04:22;95133.34;;;4.22;86.40
78210;BME280;67485;48.816;9.930;2024-02-23T08:06:48;95131.56;;;4.25;86.13
78210;BME280;67485;48.816;9.930;2024-02-23T08:09:14;95140.00;;;4.31;86.12
78210;BME280;67485;48.816;9.930;2024-02-23T08:11:40;95143.25;;;4.38;86.24
78210;BME280;67485;48.816;9.930;2024-02-23T08:14:06;95146.63;;;4.42;86.49
78210;BME280;67485;48.816;9.930;2024-02-23T08:16:34;95155.22;;;4.44;86.14
78210;BME280;67485;48.816;9.930;2024-02-23T08:19:00;95142.97;;;4.49;86.00
78210;BME280;67485;48.816;9.930;2024-02-23T08:21:26;95138.44;;;4.55;85.93
78210;BME280;67485;48.816;9.930;2024-02-23T08:23:52;95144.53;;;4.54;85.05
78210;BME280;67485;48.816;9.930;2024-02-23T08:26:18;95151.38;;;4.57;85.08
78210;BME280;67485;48.816;9.930;2024-02-23T08:28:44;95144.38;;;4.59;84.86
78210;BME280;67485;48.816;9.930;2024-02-23T08:31:09;95141.03;;;4.55;83.44
78210;BME280;67485;48.816;9.930;2024-02-23T08:33:35;95142.69;;;4.58;82.36
78210;BME280;67485;48.816;9.930;2024-02-23T08:36:01;95150.56;;;4.55;81.25
78210;BME280;67485;48.816;9.930;2024-02-23T08:38:27;95150.66;;;4.52;80.85
78210;BME280;67485;48.816;9.930;2024-02-23T08:40:52;95154.94;;;4.53;79.83
78210;BME280;67485;48.816;9.930;2024-02-23T08:43:18;95163.63;;;4.52;80.18
78210;BME280;67485;48.816;9.930;2024-02-23T08:45:44;95168.72;;;4.55;79.90
78210;BME280;67485;48.816;9.930;2024-02-23T08:48:09;95160.13;;;4.53;79.40
78210;BME280;67485;48.816;9.930;2024-02-23T08:50:40;95165.31;;;4.53;79.72
78210;BME280;67485;48.816;9.930;2024-02-23T08:53:06;95167.88;;;4.54;78.97
78210;BME280;67485;48.816;9.930;2024-02-23T08:55:32;95164.38;;;4.55;78.81
78210;BME280;67485;48.816;9.930;2024-02-23T08:57:58;95154.88;;;4.56;79.32
78210;BME280;67485;48.816;9.930;2024-02-23T09:00:24;95159.88;;;4.62;79.01
78210;BME280;67485;48.816;9.930;2024-02-23T09:02:50;95149.63;;;4.58;78.22
78210;BME280;67485;48.816;9.930;2024-02-23T09:05:16;95144.13;;;4.68;78.79
78210;BME280;67485;48.816;9.930;2024-02-23T09:07:42;95145.66;;;4.74;79.13
78210;BME280;67485;48.816;9.930;2024-02-23T09:10:08;95149.78;;;4.81;78.25
78210;BME280;67485;48.816;9.930;2024-02-23T09:12:34;95146.16;;;4.87;78.54
78210;BME280;67485;48.816;9.930;2024-02-23T09:14:59;95150.34;;;4.91;77.59
78210;BME280;67485;48.816;9.930;2024-02-23T09:17:25;95152.63;;;5.00;77.93
78210;BME280;67485;48.816;9.930;2024-02-23T09:19:51;95166.44;;;5.02;78.30
78210;BME280;67485;48.816;9.930;2024-02-23T09:22:16;95168.28;;;4.99;77.81
78210;BME280;67485;48.816;9.930;2024-02-23T09:24:42;95160.53;;;4.97;78.08
78210;BME280;67485;48.816;9.930;2024-02-23T09:27:08;95168.22;;;5.00;78.06
78210;BME280;67485;48.816;9.930;2024-02-23T09:29:34;95167.44;;;4.98;75.63
78210;BME280;67485;48.816;9.930;2024-02-23T09:32:00;95166.69;;;4.95;74.58
78210;BME280;67485;48.816;9.930;2024-02-23T09:34:26;95169.16;;;4.98;75.65
78210;BME280;67485;48.816;9.930;2024-02-23T09:36:52;95166.50;;;5.01;77.12
78210;BME280;67485;48.816;9.930;2024-02-23T09:39:18;95169.69;;;5.09;77.60
78210;BME280;67485;48.816;9.930;2024-02-23T09:41:43;95176.25;;;5.21;77.81
78210;BME280;67485;48.816;9.930;2024-02-23T09:44:09;95161.41;;;5.25;77.92
78210;BME280;67485;48.816;9.930;2024-02-23T09:46:40;95170.03;;;5.25;76.20
78210;BME280;67485;48.816;9.930;2024-02-23T09:49:06;95170.34;;;5.16;73.88
78210;BME280;67485;48.816;9.930;2024-02-23T09:51:34;95177.03;;;5.23;74.77
78210;BME280;67485;48.816;9.930;2024-02-23T09:54:01;95177.88;;;5.24;75.40
78210;BME280;67485;48.816;9.930;2024-02-23T09:56:28;95180.34;;;5.28;74.83
78210;BME280;67485;48.816;9.930;2024-02-23T09:59:03;95183.53;;;5.36;75.20
78210;BME280;67485;48.816;9.930;2024-02-23T10:01:32;95191.06;;;5.44;74.52
78210;BME280;67485;48.816;9.930;2024-02-23T10:04:00;95190.88;;;5.50;73.68
78210;BME280;67485;48.816;9.930;2024-02-23T10:06:27;95193.41;;;5.52;73.42
78210;BME280;67485;48.816;9.930;2024-02-23T10:08:53;95196.63;;;5.60;73.01
78210;BME280;67485;48.816;9.930;2024-02-23T10:11:23;95187.94;;;5.61;72.34
78210;BME280;67485;48.816;9.930;2024-02-23T10:13:49;95175.75;;;5.63;71.61
78210;BME280;67485;48.816;9.930;2024-02-23T10:16:16;95177.41;;;5.64;70.09
78210;BME280;67485;48.816;9.930;2024-02-23T10:18:42;95178.44;;;5.60;70.34
78210;BME280;67485;48.816;9.930;2024-02-23T10:21:08;95184.53;;;5.59;69.92
78210;BME280;67485;48.816;9.930;2024-02-23T10:23:34;95193.22;;;5.58;70.34
78210;BME280;67485;48.816;9.930;2024-02-23T10:25:59;95200.31;;;5.53;70.67
78210;BME280;67485;48.816;9.930;2024-02-23T10:28:25;95202.88;;;5.55;70.66
78210;BME280;67485;48.816;9.930;2024-02-23T10:30:51;95208.97;;;5.54;67.96
78210;BME280;67485;48.816;9.930;2024-02-23T10:33:22;95193.31;;;5.55;68.46
78210;BME280;67485;48.816;9.930;2024-02-23T10:35:51;95192.31;;;5.59;69.11
78210;BME280;67485;48.816;9.930;2024-02-23T10:38:20;95204.34;;;5.62;70.08
78210;BME280;67485;48.816;9.930;2024-02-23T10:40:47;95192.72;;;5.74;69.99
78210;BME280;67485;48.816;9.930;2024-02-23T10:43:28;95190.59;;;5.85;69.02
78210;BME280;67485;48.816;9.930;2024-02-23T10:45:57;95200.88;;;5.88;66.55
78210;BME280;67485;48.816;9.930;2024-02-23T10:48:24;95193.88;;;5.90;65.63
78210;BME280;67485;48.816;9.930;2024-02-23T10:50:50;95188.56;;;5.93;66.50
78210;BME280;67485;48.816;9.930;2024-02-23T10:53:16;95190.84;;;6.04;69.47
78210;BME280;67485;48.816;9.930;2024-02-23T10:55:43;95190.84;;;6.04;68.37
78210;BME280;67485;48.816;9.930;2024-02-23T10:58:11;95189.38;;;5.95;68.92
78210;BME280;67485;48.816;9.930;2024-02-23T11:00:38;95199.41;;;5.81;71.25
78210;BME280;67485;48.816;9.930;2024-02-23T11:03:05;95199.81;;;5.68;71.32
78210;BME280;67485;48.816;9.930;2024-02-23T11:05:33;95197.03;;;5.73;71.87
78210;BME280;67485;48.816;9.930;2024-02-23T11:07:59;95194.50;;;5.72;70.94
78210;BME280;67485;48.816;9.930;2024-02-23T11:10:24;95189.84;;;5.81;72.71
78210;BME280;67485;48.816;9.930;2024-02-23T11:13:08;95196.56;;;5.87;73.76
78210;BME280;67485;48.816;9.930;2024-02-23T11:15:33;95195.13;;;5.80;71.83
78210;BME280;67485;48.816;9.930;2024-02-23T11:18:21;95187.19;;;5.83;72.70
78210;BME280;67485;48.816;9.930;2024-02-23T11:20:54;95183.81;;;5.81;71.61
78210;BME280;67485;48.816;9.930;2024-02-23T11:23:20;95187.47;;;5.75;69.87
78210;BME280;67485;48.816;9.930;2024-02-23T11:26:09;95178.06;;;5.71;69.33
78210;BME280;67485;48.816;9.930;2024-02-23T11:28:51;95175.31;;;5.76;71.28
78210;BME280;67485;48.816;9.930;2024-02-23T11:31:22;95171.59;;;5.83;72.07
78210;BME280;67485;48.816;9.930;2024-02-23T11:33:56;95174.94;;;5.87;71.06
78210;BME280;67485;48.816;9.930;2024-02-23T11:36:42;95178.16;;;5.93;69.61
78210;BME280;67485;48.816;9.930;2024-02-23T11:39:09;95172.78;;;5.99;68.92
78210;BME280;67485;48.816;9.930;2024-02-23T11:41:37;95173.72;;;5.97;66.15
78210;BME280;67485;48.816;9.930;2024-02-23T11:44:03;95172.69;;;6.03;67.93
78210;BME280;67485;48.816;9.930;2024-02-23T11:46:29;95168.78;;;6.16;67.62
78210;BME280;67485;48.816;9.930;2024-02-23T11:48:55;95170.63;;;6.12;65.62
78210;BME280;67485;48.816;9.930;2024-02-23T11:51:21;95176.81;;;6.08;64.66
78210;BME280;67485;48.816;9.930;2024-02-23T11:53:48;95179.78;;;5.97;63.56
78210;BME280;67485;48.816;9.930;2024-02-23T11:56:14;95189.06;;;6.05;66.02
78210;BME280;67485;48.816;9.930;2024-02-23T11:58:40;95184.00;;;6.02;67.25
78210;BME280;67485;48.816;9.930;2024-02-23T12:01:06;95175.38;;;6.01;68.25
78210;BME280;67485;48.816;9.930;2024-02-23T12:03:33;95160.78;;;5.95;68.32
78210;BME280;67485;48.816;9.930;2024-02-23T12:06:02;95162.63;;;5.92;68.24
78210;BME280;67485;48.816;9.930;2024-02-23T12:08:30;95166.94;;;5.93;68.38
78210;BME280;67485;48.816;9.930;2024-02-23T12:11:04;95169.69;;;5.88;68.82
78210;BME280;67485;48.816;9.930;2024-02-23T12:13:30;95162.09;;;5.82;68.61
78210;BME280;67485;48.816;9.930;2024-02-23T12:15:57;95148.69;;;5.94;68.13
78210;BME280;67485;48.816;9.930;2024-02-23T12:18:23;95144.16;;;6.01;67.96
78210;BME280;67485;48.816;9.930;2024-02-23T12:20:49;95147.97;;;6.16;68.85
78210;BME280;67485;48.816;9.930;2024-02-23T12:23:15;95141.28;;;6.32;67.49
78210;BME280;67485;48.816;9.930;2024-02-23T12:25:56;95144.66;;;6.35;67.73
78210;BME280;67485;48.816;9.930;2024-02-23T12:28:22;95137.00;;;6.31;67.53
78210;BME280;67485;48.816;9.930;2024-02-23T12:31:07;95145.38;;;6.40;67.13
78210;BME280;67485;48.816;9.930;2024-02-23T12:33:34;95137.44;;;6.43;66.72
78210;BME280;67485;48.816;9.930;2024-02-23T12:36:02;95148.06;;;6.60;67.67
78210;BME280;67485;48.816;9.930;2024-02-23T12:38:27;95143.75;;;6.59;65.06
78210;BME280;67485;48.816;9.930;2024-02-23T12:40:53;95140.25;;;6.60;64.63
78210;BME280;67485;48.816;9.930;2024-02-23T12:43:19;95146.88;;;6.69;65.00
78210;BME280;67485;48.816;9.930;2024-02-23T12:45:47;95138.88;;;6.74;66.47
78210;BME280;67485;48.816;9.930;2024-02-23T12:48:17;95136.81;;;6.82;65.55
78210;BME280;67485;48.816;9.930;2024-02-23T12:50:45;95135.69;;;6.89;65.85
78210;BME280;67485;48.816;9.930;2024-02-23T12:55:56;95136.59;;;6.88;65.68
78210;BME280;67485;48.816;9.930;2024-02-23T12:58:22;95130.19;;;6.75;64.53
78210;BME280;67485;48.816;9.930;2024-02-23T13:00:48;95141.16;;;6.59;64.05
78210;BME280;67485;48.816;9.930;2024-02-23T13:03:13;95131.19;;;6.25;63.84
78210;BME280;67485;48.816;9.930;2024-02-23T13:05:42;95122.94;;;6.12;64.00
78210;BME280;67485;48.816;9.930;2024-02-23T13:08:07;95121.09;;;6.15;63.81
78210;BME280;67485;48.816;9.930;2024-02-23T13:10:33;95123.53;;;6.20;64.02